Airfield :
LOGIN :

Register | Disclaimer

   EN    FR    IT 

 










Legend :    VFR   Marginal VFR   IFR   Intensive IFR   Very Intensive IFR
Visi :
Ceiling :
>= 8 km
>= 3000ft
5 to 8 km
1000 to 3000 ft
1500m to 5 km
500 to 1000 ft
800 to 1500m
200 to 500 ft
< 800m
< 200 ft
Symbols :   Thunderstorms  Fog  Heavy snow  Heavy precipitations  Wind > 20 kt
SIGMETs :     Misc.  Thunderstorms  Icing  Turbulence  Mountain Waves  Volcanic Ashes






- Airport Elevation : 124 ft
- IATA code : NHT


EGWU - RAF Northolt

CURRENT METAR :
  • 231520Z 28012KT 9999 FEW038 17/08 Q1014 NOSIG RMK BLU BLU

EXPIRED METARs :
  • 231450Z 26013KT 9999 FEW037 18/09 Q1014 NOSIG RMK BLU BLU
  • 231420Z 29012KT 9999 FEW038 18/09 Q1014 NOSIG RMK BLU BLU
  • 231350Z 27013KT 9999 FEW035 18/10 Q1014 NOSIG RMK BLU BLU
  • 231320Z 26013KT 9999 SCT034 17/09 Q1014 NOSIG
  • 231250Z 26013KT 9999 SCT032 18/10 Q1014 NOSIG RMK BLU BLU
  • 231220Z 27011KT 9999 SCT032 16/09 Q1014 NOSIG RMK BLU BLU
  • 231150Z 27010KT 9999 BKN030 16/10 Q1014 NOSIG RMK BLU BLU
  • 231120Z 28011KT 9999 BKN027 15/10 Q1014 NOSIG RMK BLU BLU
  • 231050Z 26011KT 9999 BKN025 15/09 Q1014 NOSIG

TAF TAF EGWU
Valid from the 23 at 15:00 until the 24 at 09:00 UTC


231336Z 2315/2409 27014KT 9999 SCT030
PROB30
TEMPO 2404/2407 BKN024



MET'MAP, your aeronautical weather chart ! - Copyright ORBIFLY December 2007 - Disclaimer

ORBIFLY MET'MAP TEAM :

Programming & Development : Alexandra Zaïnal
Original concept : Baudouin d'Aumeries
Technical & hardware support : Manuel Goepfert
Assistance : Marc-Olivier Méhu




SOURCES & CREDITS :

   NOAA